Time;durP1;ratioP1;P1;durP2;ratioP2;P2;SDS_P1;SDS_P2;PMS_P1;PMS_P2;Temp;Humidity;BMP_temperature;BMP_pressure;BME280_temperature;BME280_humidity;BME280_pressure;Samples;Min_cycle;Max_cycle;Signal;HPM_P1;HPM_P2
2023/07/26 00:00:52;;;;;;;;;6.00;5.00;;;;;17.87;100.00;101176.19;5013686;28;61438;-84
2023/07/26 00:03:17;;;;;;;;;4.00;4.00;;;;;17.87;100.00;101176.19;5026729;28;46757;-84
2023/07/26 00:05:42;;;;;;;;;5.33;5.00;;;;;17.82;100.00;101178.91;5008763;28;45315;-84
2023/07/26 00:08:08;;;;;;;;;5.00;3.67;;;;;17.75;100.00;101164.78;5010961;28;51376;-84
2023/07/26 00:10:33;;;;;;;;;4.33;4.00;;;;;17.76;100.00;101182.56;5014279;28;53434;-84
2023/07/26 00:12:58;;;;;;;;;5.33;4.00;;;;;17.71;100.00;101178.16;5001879;28;71799;-84
2023/07/26 00:15:23;;;;;;;;;6.67;5.00;;;;;17.71;100.00;101188.84;5012332;28;65721;-84
2023/07/26 00:17:49;;;;;;;;;5.00;5.00;;;;;17.67;100.00;101187.09;5010672;28;58639;-85
2023/07/26 00:20:14;;;;;;;;;4.00;4.00;;;;;17.65;100.00;101188.91;5010807;28;56407;-84
2023/07/26 00:22:39;;;;;;;;;6.00;4.33;;;;;17.61;100.00;101188.06;4999140;28;53959;-84
2023/07/26 00:25:05;;;;;;;;;3.33;3.33;;;;;17.59;100.00;101192.53;5001438;28;68121;-85
2023/07/26 00:27:31;;;;;;;;;4.67;3.00;;;;;17.55;100.00;101196.16;5007109;28;45385;-86
2023/07/26 00:29:56;;;;;;;;;5.33;3.00;;;;;17.54;100.00;101205.94;4997636;28;63580;-85
2023/07/26 00:32:21;;;;;;;;;3.00;3.00;;;;;17.51;100.00;101194.41;5015403;28;68765;-86
2023/07/26 00:34:46;;;;;;;;;6.33;5.00;;;;;17.48;100.00;101192.66;5017050;28;46147;-84
2023/07/26 00:37:12;;;;;;;;;3.00;3.00;;;;;17.44;100.00;101190.06;5007616;28;60046;-83
2023/07/26 00:39:38;;;;;;;;;4.00;4.00;;;;;17.45;100.00;101192.69;5003034;28;60448;-84
2023/07/26 00:42:04;;;;;;;;;7.33;5.00;;;;;17.43;100.00;101189.16;5005429;28;46433;-84
2023/07/26 00:44:29;;;;;;;;;6.00;4.33;;;;;17.41;100.00;101192.75;5009923;28;45831;-85
2023/07/26 00:46:55;;;;;;;;;4.00;4.00;;;;;17.36;100.00;101191.91;5006694;28;57913;-84
2023/07/26 00:49:20;;;;;;;;;5.67;4.00;;;;;17.35;100.00;101199.03;5020035;28;45456;-84
2023/07/26 00:51:45;;;;;;;;;6.00;3.33;;;;;17.36;100.00;101207.91;5015690;28;47650;-84
2023/07/26 00:54:11;;;;;;;;;4.00;4.00;;;;;17.34;100.00;101201.72;5017549;28;66613;-84
2023/07/26 00:56:36;;;;;;;;;6.00;4.33;;;;;17.32;100.00;101198.22;5016621;28;62136;-85
2023/07/26 00:59:02;;;;;;;;;4.00;4.00;;;;;17.31;100.00;101201.75;5018365;28;45599;-85
2023/07/26 01:01:27;;;;;;;;;5.00;5.00;;;;;17.31;100.00;101196.41;5014770;28;45821;-86
2023/07/26 01:03:53;;;;;;;;;4.67;4.00;;;;;17.26;100.00;101192.03;5017676;28;45475;-84
2023/07/26 01:06:37;;;;;;;;;4.00;4.00;;;;;17.31;100.00;101204.41;5015764;28;59970;-84
2023/07/26 01:09:09;;;;;;;;;4.00;4.00;;;;;17.26;100.00;101197.38;5017047;28;45484;-84
2023/07/26 01:11:48;;;;;;;;;5.67;5.33;;;;;17.27;100.00;101198.25;5006107;28;45858;-83
2023/07/26 01:14:34;;;;;;;;;4.00;3.00;;;;;17.27;100.00;101199.13;5011302;28;45530;-84
2023/07/26 01:16:59;;;;;;;;;4.00;4.00;;;;;17.30;100.00;101190.19;5012186;28;45511;-84
2023/07/26 01:19:24;;;;;;;;;4.33;4.33;;;;;17.27;100.00;101190.25;5017655;28;46228;-84
2023/07/26 01:21:50;;;;;;;;;4.00;4.00;;;;;17.26;100.00;101189.38;5017269;28;68070;-84
2023/07/26 01:24:15;;;;;;;;;4.00;4.00;;;;;17.30;100.00;101187.53;5022481;28;63986;-84
2023/07/26 01:26:40;;;;;;;;;4.67;4.00;;;;;17.30;100.00;101187.53;5016163;28;62420;-84
2023/07/26 01:29:06;;;;;;;;;4.00;4.00;;;;;17.29;100.00;101193.78;5013991;28;45489;-85
2023/07/26 01:31:31;;;;;;;;;4.00;3.00;;;;;17.29;100.00;101186.63;5009874;28;46341;-86
2023/07/26 01:33:58;;;;;;;;;3.00;3.00;;;;;17.28;100.00;101192.88;5011861;28;67715;-84
2023/07/26 01:36:24;;;;;;;;;4.00;4.00;;;;;17.28;100.00;101189.34;5010065;28;53542;-85
2023/07/26 01:38:50;;;;;;;;;4.00;4.00;;;;;17.22;100.00;101186.75;5005976;28;45461;-85
2023/07/26 01:41:17;;;;;;;;;4.67;4.67;;;;;17.21;100.00;101177.84;5005894;28;45599;-85
2023/07/26 01:43:43;;;;;;;;;3.67;3.67;;;;;17.18;100.00;101177.88;5016058;28;45491;-84
2023/07/26 01:46:12;;;;;;;;;5.67;4.33;;;;;17.17;100.00;101185.91;5010336;28;45471;-85
2023/07/26 01:48:37;;;;;;;;;3.00;3.00;;;;;17.18;100.00;101185.00;5017787;28;45229;-84
2023/07/26 01:51:03;;;;;;;;;3.00;3.00;;;;;17.14;100.00;101178.78;5018612;28;46442;-84
2023/07/26 01:53:29;;;;;;;;;6.00;4.00;;;;;17.11;100.00;101181.50;5012782;28;45352;-85
2023/07/26 01:55:54;;;;;;;;;3.00;3.00;;;;;17.12;100.00;101172.59;5008304;28;64143;-84
2023/07/26 01:58:19;;;;;;;;;3.67;3.67;;;;;17.09;100.00;101171.75;5017156;28;45643;-84
2023/07/26 02:00:45;;;;;;;;;3.67;3.67;;;;;17.08;100.00;101175.31;5017007;28;67171;-84
2023/07/26 02:03:10;;;;;;;;;5.00;3.00;;;;;17.05;100.00;101178.91;5015936;28;61656;-85
2023/07/26 02:05:42;;;;;;;;;5.00;3.00;;;;;17.03;100.00;101176.25;5015139;28;60449;-84
2023/07/26 02:08:07;;;;;;;;;4.00;4.00;;;;;17.02;100.00;101178.94;5017069;28;45451;-84
2023/07/26 02:10:33;;;;;;;;;3.00;3.00;;;;;16.98;100.00;101174.53;5017892;28;68517;-85
2023/07/26 02:12:58;;;;;;;;;2.67;2.67;;;;;16.96;100.00;101174.53;5005493;28;55835;-84
2023/07/26 02:15:23;;;;;;;;;4.00;2.67;;;;;16.92;100.00;101172.78;5019687;28;58866;-84
2023/07/26 02:17:49;;;;;;;;;7.00;4.67;;;;;16.94;100.00;101183.47;5017009;28;45250;-84
2023/07/26 02:20:14;;;;;;;;;4.00;3.00;;;;;16.91;100.00;101172.81;5010432;28;64406;-84
2023/07/26 02:22:39;;;;;;;;;5.00;3.33;;;;;16.87;100.00;101173.75;5003454;28;45439;-83
2023/07/26 02:25:05;;;;;;;;;3.00;3.00;;;;;16.91;100.00;101180.81;5011381;28;62337;-84
2023/07/26 02:27:30;;;;;;;;;5.33;3.67;;;;;16.89;100.00;101182.63;5011171;28;45451;-83
2023/07/26 02:29:56;;;;;;;;;3.00;3.00;;;;;16.84;100.00;101184.47;5015722;28;66949;-84
2023/07/26 02:32:21;;;;;;;;;3.67;3.67;;;;;16.80;100.00;101180.03;5007898;28;45441;-84
2023/07/26 02:34:47;;;;;;;;;3.67;3.67;;;;;16.84;100.00;101188.00;5008033;28;45546;-86
2023/07/26 02:37:12;;;;;;;;;3.00;3.00;;;;;16.83;100.00;101193.31;5018336;28;45511;-84
2023/07/26 02:39:37;;;;;;;;;5.00;4.00;;;;;16.81;100.00;101185.34;5017620;28;47218;-85
2023/07/26 02:42:03;;;;;;;;;5.33;3.00;;;;;16.80;100.00;101188.91;5015028;28;64542;-85
2023/07/26 02:44:28;;;;;;;;;4.33;4.33;;;;;16.77;100.00;101188.94;5015230;28;45598;-86
2023/07/26 02:46:54;;;;;;;;;2.00;2.00;;;;;16.75;100.00;101188.97;5015234;28;56836;-84
2023/07/26 02:49:19;;;;;;;;;7.00;4.00;;;;;16.75;100.00;101188.06;5016974;28;68986;-85
2023/07/26 02:51:44;;;;;;;;;3.00;3.00;;;;;16.72;100.00;101183.66;5014717;28;67247;-84
2023/07/26 02:54:09;;;;;;;;;4.00;4.00;;;;;16.71;100.00;101183.66;5016609;28;45401;-84
2023/07/26 02:56:35;;;;;;;;;4.00;4.00;;;;;16.69;100.00;101185.44;5012491;28;58013;-84
2023/07/26 02:59:00;;;;;;;;;3.00;3.00;;;;;16.67;100.00;101181.88;5005695;28;67881;-84
2023/07/26 03:01:25;;;;;;;;;4.33;3.00;;;;;16.65;100.00;101176.56;5010262;28;60683;-84
2023/07/26 03:03:51;;;;;;;;;5.00;5.00;;;;;16.66;100.00;101181.00;5011805;28;58160;-84
2023/07/26 03:06:16;;;;;;;;;3.00;3.00;;;;;16.61;100.00;101177.47;5010271;28;54429;-85
2023/07/26 03:08:41;;;;;;;;;6.00;3.00;;;;;16.62;100.00;101184.59;5015983;28;66184;-84
2023/07/26 03:11:07;;;;;;;;;5.00;4.00;;;;;16.59;100.00;101184.63;5005145;28;65862;-83
2023/07/26 03:13:32;;;;;;;;;4.00;3.00;;;;;16.58;100.00;101181.97;5009163;28;63465;-84
2023/07/26 03:15:57;;;;;;;;;5.00;4.00;;;;;16.57;100.00;101182.88;5012412;28;64308;-84
2023/07/26 03:18:23;;;;;;;;;4.00;4.00;;;;;16.57;100.00;101193.53;5006288;28;67097;-84
2023/07/26 03:20:48;;;;;;;;;4.33;4.33;;;;;16.57;100.00;101189.09;5003257;28;65875;-84
2023/07/26 03:23:13;;;;;;;;;6.00;5.00;;;;;16.55;100.00;101188.19;5032624;28;54154;-84
2023/07/26 03:25:39;;;;;;;;;4.00;4.00;;;;;16.54;100.00;101189.09;5008046;28;45191;-85
2023/07/26 03:28:04;;;;;;;;;5.33;4.00;;;;;16.55;100.00;101196.19;5012854;28;55572;-84
2023/07/26 03:30:29;;;;;;;;;9.00;4.00;;;;;16.52;100.00;101190.91;5012612;28;52776;-84
2023/07/26 03:32:55;;;;;;;;;4.00;4.00;;;;;16.56;100.00;101197.06;5007411;28;61175;-84
2023/07/26 03:35:20;;;;;;;;;4.67;4.67;;;;;16.58;100.00;101208.63;5015007;28;45377;-86
2023/07/26 03:37:45;;;;;;;;;6.00;4.00;;;;;16.58;100.00;101203.31;4991222;28;70521;-85
2023/07/26 03:40:11;;;;;;;;;4.00;4.00;;;;;16.56;100.00;101203.28;5016389;28;45534;-84
2023/07/26 03:42:36;;;;;;;;;3.00;3.00;;;;;16.55;100.00;101200.66;5017295;28;45265;-84
2023/07/26 03:45:02;;;;;;;;;4.33;4.33;;;;;16.56;100.00;101211.28;5012788;28;45576;-84
2023/07/26 03:47:27;;;;;;;;;4.00;4.00;;;;;16.52;100.00;101198.91;5005184;28;47273;-84
2023/07/26 03:49:52;;;;;;;;;4.00;4.00;;;;;16.55;100.00;101203.31;5016982;28;45301;-85
2023/07/26 03:52:18;;;;;;;;;3.67;3.33;;;;;16.55;100.00;101204.19;5032426;28;45305;-84
2023/07/26 03:54:44;;;;;;;;;4.00;4.00;;;;;16.59;100.00;101208.63;5014173;28;56723;-85
2023/07/26 03:57:09;;;;;;;;;4.00;4.00;;;;;16.59;100.00;101210.41;5004091;28;47369;-84
2023/07/26 03:59:34;;;;;;;;;4.00;4.00;;;;;16.56;100.00;101199.75;5016333;28;45455;-84
2023/07/26 04:02:00;;;;;;;;;4.00;4.00;;;;;16.54;100.00;101196.22;5008395;28;62329;-85
2023/07/26 04:04:25;;;;;;;;;5.00;4.00;;;;;16.52;100.00;101201.56;5016192;28;59397;-84
2023/07/26 04:06:50;;;;;;;;;4.33;4.33;;;;;16.53;100.00;101198.00;5016322;28;62698;-84
2023/07/26 04:09:16;;;;;;;;;4.00;4.00;;;;;16.52;100.00;101190.03;5014371;28;65957;-84
2023/07/26 04:11:41;;;;;;;;;3.67;3.67;;;;;16.49;100.00;101193.59;5016470;28;45302;-84
2023/07/26 04:14:06;;;;;;;;;5.00;5.00;;;;;16.49;100.00;101193.59;5015595;28;61060;-86
2023/07/26 04:16:32;;;;;;;;;6.33;4.00;;;;;16.47;100.00;101195.38;5007741;28;69141;-84
2023/07/26 04:18:57;;;;;;;;;7.00;4.00;;;;;16.44;100.00;101190.94;5007130;28;59458;-84
2023/07/26 04:21:22;;;;;;;;;5.00;5.00;;;;;16.45;100.00;101191.81;5015987;28;56140;-83
2023/07/26 04:23:48;;;;;;;;;4.00;4.00;;;;;16.44;100.00;101193.63;5015162;28;56730;-84
2023/07/26 04:26:13;;;;;;;;;6.33;4.00;;;;;16.42;100.00;101190.09;5008101;28;62688;-84
2023/07/26 04:28:39;;;;;;;;;4.00;4.00;;;;;16.43;100.00;101193.63;5001695;28;45400;-84
2023/07/26 04:31:04;;;;;;;;;4.67;4.67;;;;;16.43;100.00;101186.53;5008373;28;45189;-84
2023/07/26 04:33:30;;;;;;;;;6.00;6.00;;;;;16.42;100.00;101194.53;5001809;28;45570;-83
2023/07/26 04:35:57;;;;;;;;;6.33;5.00;;;;;16.43;100.00;101193.63;5016023;28;52945;-84
2023/07/26 04:38:22;;;;;;;;;4.00;4.00;;;;;16.40;100.00;101194.53;5011026;28;45147;-84
2023/07/26 04:40:48;;;;;;;;;5.00;4.67;;;;;16.39;100.00;101187.44;5015192;28;45559;-84
2023/07/26 04:43:20;;;;;;;;;5.67;5.00;;;;;16.41;100.00;101192.78;5014837;28;45508;-84
2023/07/26 04:45:49;;;;;;;;;6.33;6.00;;;;;16.41;100.00;101200.78;5009408;28;45888;-84
2023/07/26 04:48:16;;;;;;;;;7.67;5.00;;;;;16.37;100.00;101193.69;5008536;28;45320;-84
2023/07/26 04:50:42;;;;;;;;;5.00;5.00;;;;;16.40;100.00;101197.19;5015208;28;45498;-85
2023/07/26 04:53:07;;;;;;;;;6.33;4.33;;;;;16.41;100.00;101196.31;5012140;28;45343;-83
2023/07/26 04:55:32;;;;;;;;;4.67;4.67;;;;;16.45;100.00;101200.72;5012052;28;69864;-85
2023/07/26 04:57:58;;;;;;;;;4.33;4.00;;;;;16.50;100.00;101208.66;5011651;28;45233;-84
2023/07/26 05:00:23;;;;;;;;;5.00;5.00;;;;;16.53;100.00;101213.13;5015021;28;59985;-85
2023/07/26 05:02:48;;;;;;;;;3.00;3.00;;;;;16.54;100.00;101215.75;5007519;28;58001;-84
2023/07/26 05:05:14;;;;;;;;;6.00;6.00;;;;;16.58;100.00;101213.97;5008959;28;70349;-84
2023/07/26 05:07:39;;;;;;;;;4.33;4.33;;;;;16.60;100.00;101207.72;5006035;28;61993;-83
2023/07/26 05:10:05;;;;;;;;;5.00;5.00;;;;;16.65;100.00;101211.22;5006349;28;56461;-84
2023/07/26 05:12:30;;;;;;;;;5.00;5.00;;;;;16.66;100.00;101210.31;5012405;28;45531;-85
2023/07/26 05:14:55;;;;;;;;;5.33;5.33;;;;;16.68;100.00;101221.88;5015138;28;68907;-86
2023/07/26 05:19:52;;;;;;;;;5.67;5.00;;;;;16.73;100.00;101220.09;5018576;28;45422;-85
2023/07/26 05:22:17;;;;;;;;;5.33;4.00;;;;;16.74;100.00;101218.31;5014333;28;50808;-84
2023/07/26 05:24:42;;;;;;;;;5.67;5.67;;;;;16.81;100.00;101225.34;5004972;28;68605;-85
2023/07/26 05:27:08;;;;;;;;;4.33;4.00;;;;;16.84;100.00;101213.78;5015398;28;53325;-84
2023/07/26 05:29:33;;;;;;;;;5.00;5.00;;;;;16.87;100.00;101225.31;5018900;28;45429;-87
2023/07/26 05:31:58;;;;;;;;;6.00;5.67;;;;;16.91;100.00;101223.50;5018345;28;59487;-84
2023/07/26 05:34:24;;;;;;;;;6.00;5.00;;;;;16.93;100.00;101225.25;4984553;28;67771;-86
2023/07/26 05:36:49;;;;;;;;;5.33;5.00;;;;;17.00;100.00;101236.75;5017457;28;64215;-84
2023/07/26 05:39:14;;;;;;;;;5.33;5.33;;;;;16.98;100.00;101231.41;5019046;28;45793;-85
2023/07/26 05:41:40;;;;;;;;;5.67;4.67;;;;;17.01;100.00;101234.06;5017123;28;61450;-86
2023/07/26 05:44:05;;;;;;;;;6.33;3.00;;;;;17.03;100.00;101236.72;5018091;28;67530;-83
2023/07/26 05:46:30;;;;;;;;;4.67;4.00;;;;;17.01;100.00;101235.88;5000005;28;65008;-84
2023/07/26 05:48:56;;;;;;;;;6.00;6.00;;;;;17.00;100.00;101245.66;5018261;28;60624;-82
2023/07/26 05:51:21;;;;;;;;;5.33;4.00;;;;;17.00;100.00;101244.78;5006833;28;58160;-84
2023/07/26 05:53:46;;;;;;;;;11.00;7.00;;;;;16.99;100.00;101248.31;5017107;28;62247;-84
2023/07/26 05:56:14;;;;;;;;;7.67;6.33;;;;;16.96;100.00;101251.91;5030904;28;63913;-85
2023/07/26 05:58:39;;;;;;;;;4.67;4.00;;;;;17.02;100.00;101264.31;5001050;28;45348;-82
2023/07/26 06:01:05;;;;;;;;;6.00;5.00;;;;;17.05;100.00;101266.06;5019158;28;45274;-85
2023/07/26 06:03:30;;;;;;;;;9.67;6.33;;;;;17.07;100.00;101259.81;4996166;28;68728;-84
2023/07/26 06:05:55;;;;;;;;;5.67;5.00;;;;;17.08;100.00;101272.25;5033852;28;45304;-86
2023/07/26 06:08:21;;;;;;;;;5.00;5.00;;;;;17.10;100.00;101283.81;5000900;28;61686;-86
2023/07/26 06:10:46;;;;;;;;;7.33;6.00;;;;;17.10;100.00;101281.16;4999187;28;64924;-84
2023/07/26 06:13:12;;;;;;;;;6.00;5.00;;;;;17.11;100.00;101282.03;5017254;28;45720;-85
2023/07/26 06:15:41;;;;;;;;;8.67;6.00;;;;;17.12;100.00;101276.66;5019857;28;45301;-84
2023/07/26 06:18:06;;;;;;;;;7.00;5.00;;;;;17.15;100.00;101286.41;5000553;28;45452;-85
2023/07/26 06:20:31;;;;;;;;;6.33;5.67;;;;;17.16;100.00;101285.53;5016868;28;45428;-84
2023/07/26 06:22:57;;;;;;;;;6.00;6.00;;;;;17.13;100.00;101286.44;5017947;28;65146;-85
2023/07/26 06:25:22;;;;;;;;;7.00;7.00;;;;;17.13;100.00;101289.09;4999772;28;66103;-84
2023/07/26 06:27:47;;;;;;;;;10.00;8.00;;;;;17.18;100.00;101294.41;5017763;28;45186;-85
2023/07/26 06:30:15;;;;;;;;;8.00;8.00;;;;;17.19;100.00;101290.84;5018602;28;45611;-84
2023/07/26 06:32:40;;;;;;;;;10.00;8.00;;;;;17.22;100.00;101302.38;5018304;28;47615;-85
2023/07/26 06:35:06;;;;;;;;;8.67;7.33;;;;;17.28;100.00;101304.09;5017652;28;45512;-85
2023/07/26 06:37:31;;;;;;;;;9.33;8.33;;;;;17.32;100.00;101300.50;5018228;28;45468;-86
2023/07/26 06:39:57;;;;;;;;;10.67;8.67;;;;;17.38;100.00;101307.56;5001152;28;45579;-85
2023/07/26 06:42:22;;;;;;;;;6.33;6.33;;;;;17.39;100.00;101299.53;5017113;28;63020;-84
2023/07/26 06:44:47;;;;;;;;;7.67;5.33;;;;;17.39;100.00;101296.88;5000213;28;45359;-84
2023/07/26 06:47:13;;;;;;;;;9.33;7.67;;;;;17.45;100.00;101298.59;5015633;28;63607;-86
2023/07/26 06:49:38;;;;;;;;;7.33;6.33;;;;;17.52;100.00;101306.56;5016373;28;57481;-84
2023/07/26 06:52:03;;;;;;;;;8.67;8.33;;;;;17.58;100.00;101308.28;5005323;28;47212;-85
2023/07/26 06:54:30;;;;;;;;;12.00;8.00;;;;;17.60;100.00;101301.13;5017671;28;45210;-85
2023/07/26 06:56:55;;;;;;;;;7.00;7.00;;;;;17.66;100.00;101301.06;4988612;28;45469;-85
2023/07/26 06:59:21;;;;;;;;;5.67;5.67;;;;;17.68;100.00;101299.25;4972908;28;45285;-86
2023/07/26 07:01:46;;;;;;;;;7.67;6.00;;;;;17.72;100.00;101298.34;4998778;28;47369;-84
2023/07/26 07:04:11;;;;;;;;;8.00;8.00;;;;;17.72;100.00;101290.34;5001349;28;46426;-84
2023/07/26 07:06:37;;;;;;;;;9.00;7.00;;;;;17.77;100.00;101296.50;5000486;28;56044;-85
2023/07/26 07:09:04;;;;;;;;;7.00;6.00;;;;;17.76;100.00;101286.72;5017161;28;45543;-84
2023/07/26 07:11:29;;;;;;;;;8.00;6.00;;;;;17.85;100.00;101291.09;5032928;28;45785;-83
2023/07/26 07:13:56;;;;;;;;;10.67;7.67;;;;;17.91;100.00;101295.47;5018816;28;45545;-85
2023/07/26 07:16:21;;;;;;;;;4.00;4.00;;;;;17.92;100.00;101284.75;5017952;28;45290;-86
2023/07/26 07:18:48;;;;;;;;;8.33;7.00;;;;;17.99;100.00;101293.59;5000033;28;45393;-82
2023/07/26 07:21:13;;;;;;;;;6.00;6.00;;;;;18.01;100.00;101295.34;5011071;28;47023;-87
2023/07/26 07:23:38;;;;;;;;;7.33;7.33;;;;;18.06;100.00;101293.50;5004914;28;63792;-84
2023/07/26 07:26:04;;;;;;;;;8.67;7.67;;;;;18.13;100.00;101293.44;5009860;28;45928;-86
2023/07/26 07:28:29;;;;;;;;;9.33;6.00;;;;;18.24;100.00;101303.06;5016697;28;60951;-85
2023/07/26 07:30:54;;;;;;;;;6.00;5.00;;;;;18.32;100.00;101300.28;4979550;28;45584;-84
2023/07/26 07:33:20;;;;;;;;;6.67;6.67;;;;;18.34;100.00;101293.13;5013654;28;65712;-85
2023/07/26 07:35:45;;;;;;;;;5.00;5.00;;;;;18.50;100.00;101289.34;5013612;28;45665;-87
2023/07/26 07:38:10;;;;;;;;;6.67;6.67;;;;;18.61;100.00;101290.97;4999943;28;45307;-82
2023/07/26 07:40:36;;;;;;;;;7.33;5.67;;;;;18.66;100.00;101290.00;5014303;28;46893;-86
2023/07/26 07:43:02;;;;;;;;;5.33;5.00;;;;;18.70;100.00;101278.41;5016777;28;45425;-84
2023/07/26 07:45:28;;;;;;;;;7.33;5.33;;;;;18.72;100.00;101276.56;5016818;28;45223;-84
2023/07/26 07:47:54;;;;;;;;;6.67;5.00;;;;;18.76;100.00;101272.94;4999961;28;45758;-85
2023/07/26 07:50:19;;;;;;;;;4.00;4.00;;;;;18.84;100.00;101278.16;5016336;28;45926;-85
2023/07/26 07:52:44;;;;;;;;;7.00;4.00;;;;;18.87;100.00;101278.13;5015412;28;60253;-85
2023/07/26 07:55:10;;;;;;;;;7.00;5.00;;;;;18.93;100.00;101275.34;5032006;28;45432;-86
2023/07/26 07:57:35;;;;;;;;;4.67;4.67;;;;;18.92;100.00;101273.59;5016685;28;54167;-84
2023/07/26 08:00:01;;;;;;;;;6.67;5.00;;;;;18.97;100.00;101270.84;5016581;28;46419;-85
2023/07/26 08:02:26;;;;;;;;;3.33;3.33;;;;;19.03;100.00;101273.41;4996336;28;45475;-86
2023/07/26 08:04:52;;;;;;;;;5.00;4.00;;;;;19.07;100.00;101280.47;5014843;28;45345;-85
2023/07/26 08:07:17;;;;;;;;;4.00;3.33;;;;;19.07;100.00;101276.00;5015633;28;59420;-84
2023/07/26 08:09:42;;;;;;;;;3.00;3.00;;;;;19.07;100.00;101277.81;5028589;28;69099;-82
2023/07/26 08:12:08;;;;;;;;;7.00;4.00;;;;;19.07;100.00;101283.16;5016625;28;45451;-85
2023/07/26 08:14:34;;;;;;;;;4.00;4.00;;;;;19.11;100.00;101282.16;5016817;28;45953;-82
2023/07/26 08:16:59;;;;;;;;;5.00;3.00;;;;;19.20;100.00;101290.06;5015641;28;45569;-84
2023/07/26 08:19:25;;;;;;;;;2.33;2.33;;;;;19.21;100.00;101281.09;4994649;28;45484;-86
2023/07/26 08:21:51;;;;;;;;;5.33;3.67;;;;;19.20;100.00;101283.81;4995673;28;45338;-84
2023/07/26 08:24:17;;;;;;;;;3.00;3.00;;;;;19.24;100.00;101285.53;4978926;28;45468;-85
2023/07/26 08:26:42;;;;;;;;;4.33;4.00;;;;;19.26;100.00;101289.94;4979023;28;45267;-85
2023/07/26 08:29:08;;;;;;;;;2.67;2.67;;;;;19.32;100.00;101284.47;4996450;28;47341;-85
2023/07/26 08:31:33;;;;;;;;;4.67;3.67;;;;;19.37;100.00;101279.91;4995023;28;45470;-82
2023/07/26 08:33:58;;;;;;;;;4.67;3.33;;;;;19.49;100.00;101272.56;4995927;28;54132;-85
2023/07/26 08:36:24;;;;;;;;;3.33;3.33;;;;;19.58;100.00;101283.13;4994178;28;60067;-85
2023/07/26 08:38:49;;;;;;;;;6.00;4.33;;;;;19.68;100.00;101282.06;4996417;28;46408;-84
2023/07/26 08:41:14;;;;;;;;;6.00;5.00;;;;;19.78;100.00;101280.09;4996470;28;45277;-85
2023/07/26 08:43:40;;;;;;;;;2.67;2.67;;;;;19.82;100.00;101269.28;4993861;28;61013;-85
2023/07/26 08:46:06;;;;;;;;;3.33;2.67;;;;;19.95;100.00;101279.75;4995730;28;45541;-82
2023/07/26 08:48:36;;;;;;;;;2.67;2.67;;;;;20.00;100.00;101272.50;4994972;28;45370;-83
2023/07/26 08:51:02;;;;;;;;;5.00;3.67;;;;;20.02;100.00;101278.69;4996370;28;45313;-83
2023/07/26 08:53:28;;;;;;;;;3.00;3.00;;;;;20.01;100.00;101271.56;4995951;28;45313;-82
2023/07/26 08:55:53;;;;;;;;;3.67;2.67;;;;;20.01;100.00;101268.91;4995314;28;45453;-82
2023/07/26 08:58:19;;;;;;;;;2.33;2.33;;;;;20.04;100.00;101261.69;4996507;28;45525;-82
2023/07/26 09:00:46;;;;;;;;;2.00;2.00;;;;;20.10;100.00;101260.66;4995489;28;45281;-85
2023/07/26 09:03:11;;;;;;;;;2.00;2.00;;;;;20.12;100.00;101261.50;4996301;28;45357;-84
2023/07/26 09:05:37;;;;;;;;;4.00;2.00;;;;;20.21;100.00;101265.78;4997592;28;45671;-82
2023/07/26 09:08:02;;;;;;;;;1.00;1.00;;;;;20.26;100.00;101258.53;5012591;28;46648;-85
2023/07/26 09:10:29;;;;;;;;;2.00;2.00;;;;;20.29;100.00;101251.28;4999020;28;45528;-82
2023/07/26 09:13:07;;;;;;;;;2.00;2.00;;;;;20.34;100.00;101249.38;5000031;28;45214;-82
2023/07/26 09:15:37;;;;;;;;;1.33;1.00;;;;;20.37;100.00;101243.97;5001939;28;45427;-85
2023/07/26 09:18:04;;;;;;;;;1.33;1.33;;;;;20.42;100.00;101252.78;4981878;28;45362;-85
2023/07/26 09:20:30;;;;;;;;;2.00;2.00;;;;;20.42;100.00;101250.09;4979796;28;45192;-82
2023/07/26 09:23:02;;;;;;;;;1.00;1.00;;;;;20.45;100.00;101253.63;4979673;28;45499;-82
2023/07/26 09:25:42;;;;;;;;;1.33;1.00;;;;;20.52;100.00;101258.84;4979022;28;45474;-83
2023/07/26 09:28:10;;;;;;;;;2.00;2.00;;;;;20.57;100.00;101251.59;4994287;28;47484;-82
2023/07/26 09:30:36;;;;;;;;;2.00;2.00;;;;;20.60;100.00;101240.75;4978425;28;45411;-83
2023/07/26 09:33:02;;;;;;;;;1.33;1.33;;;;;20.61;100.00;101241.63;4979425;28;45329;-84
2023/07/26 09:35:31;;;;;;;;;3.33;1.00;;;;;20.60;100.00;101245.25;4979865;28;45475;-82
2023/07/26 09:37:56;;;;;;;;;1.00;1.00;;;;;20.60;100.00;101240.75;4979624;28;45516;-83
2023/07/26 09:40:32;;;;;;;;;2.67;1.00;;;;;20.66;100.00;101258.50;4977715;28;45438;-82
2023/07/26 09:42:57;;;;;;;;;1.33;1.33;;;;;20.69;100.00;101257.56;4979513;28;45230;-84
2023/07/26 09:45:24;;;;;;;;;1.67;1.00;;;;;20.78;100.00;101260.94;4977714;28;45475;-87
2023/07/26 09:47:51;;;;;;;;;1.00;1.00;;;;;20.85;100.00;101256.28;4979502;28;46640;-85
2023/07/26 09:50:28;;;;;;;;;1.00;1.00;;;;;20.89;100.00;101258.84;4978813;28;45329;-82
2023/07/26 09:52:54;;;;;;;;;1.67;1.00;;;;;20.94;100.00;101264.13;4979641;28;45413;-86
2023/07/26 09:55:25;;;;;;;;;2.00;1.00;;;;;20.95;100.00;101256.94;4977702;28;45458;-85
2023/07/26 09:57:55;;;;;;;;;5.00;1.00;;;;;20.89;100.00;101261.53;5010465;28;45457;-85
2023/07/26 10:00:23;;;;;;;;;2.00;0.00;;;;;20.91;100.00;101270.44;4961305;28;45490;-85
2023/07/26 10:02:57;;;;;;;;;1.00;1.00;;;;;20.93;100.00;101271.28;4977862;28;45351;-84
2023/07/26 10:05:24;;;;;;;;;1.67;1.67;;;;;20.93;100.00;101270.38;4977840;28;45247;-85
2023/07/26 10:07:50;;;;;;;;;2.33;1.00;;;;;20.95;100.00;101267.69;4994157;28;45850;-85
2023/07/26 10:10:17;;;;;;;;;1.00;1.00;;;;;20.98;100.00;101271.16;4976737;28;69535;-87
2023/07/26 10:12:46;;;;;;;;;4.00;1.00;;;;;20.99;100.00;101264.00;4971574;28;45487;-84
2023/07/26 10:15:16;;;;;;;;;1.00;1.00;;;;;21.05;100.00;101259.34;4976963;28;45351;-84
2023/07/26 10:17:44;;;;;;;;;1.00;1.00;;;;;21.11;100.00;101259.19;4994885;28;47035;-85
2023/07/26 10:20:10;;;;;;;;;1.00;1.00;;;;;21.17;100.00;101268.88;5000900;28;45293;-84
2023/07/26 10:22:36;;;;;;;;;2.00;2.00;;;;;21.22;100.00;101266.97;5018013;28;45920;-84
2023/07/26 10:25:02;;;;;;;;;1.00;1.00;;;;;21.25;100.00;101257.94;5036626;28;45242;-85
2023/07/26 10:27:27;;;;;;;;;1.67;1.67;;;;;21.28;100.00;101266.81;5015560;28;60719;-87
2023/07/26 10:29:53;;;;;;;;;1.00;1.00;;;;;21.27;100.00;101267.72;4999226;28;62450;-84
2023/07/26 10:32:18;;;;;;;;;0.67;0.67;;;;;21.28;100.00;101266.81;5016877;28;63627;-84
2023/07/26 10:34:43;;;;;;;;;1.00;1.00;;;;;21.34;100.00;101261.28;5000335;28;45589;-84
2023/07/26 10:37:19;;;;;;;;;2.67;1.67;;;;;21.37;100.00;101250.47;5016958;28;65610;-83
2023/07/26 10:39:44;;;;;;;;;0.00;0.00;;;;;21.48;100.00;101252.00;5017788;28;45458;-84
2023/07/26 10:42:26;;;;;;;;;1.00;1.00;;;;;21.58;100.00;101243.63;5012900;28;45405;-85
2023/07/26 10:44:53;;;;;;;;;0.00;0.00;;;;;21.74;100.00;101254.84;4983520;28;45552;-84
2023/07/26 10:47:19;;;;;;;;;1.00;1.00;;;;;21.82;100.00;101239.34;5017371;28;47613;-84
2023/07/26 10:49:48;;;;;;;;;2.00;1.00;;;;;21.91;100.00;101241.78;5047986;28;45497;-87
2023/07/26 10:52:14;;;;;;;;;1.67;0.00;;;;;21.90;100.00;101244.53;5017325;28;45452;-84
2023/07/26 10:54:42;;;;;;;;;2.00;2.00;;;;;21.93;100.00;101239.91;5000437;28;45630;-84
2023/07/26 10:57:31;;;;;;;;;2.00;0.00;;;;;22.01;100.00;101242.41;5016993;28;47386;-84
2023/07/26 11:00:06;;;;;;;;;1.00;1.00;;;;;22.11;100.00;101251.13;5018730;28;46080;-85
2023/07/26 11:02:48;;;;;;;;;1.00;1.00;;;;;22.16;100.00;101239.28;5013126;28;45412;-83
2023/07/26 11:05:17;;;;;;;;;1.33;0.00;;;;;22.29;100.00;101249.66;5011812;28;45484;-84
2023/07/26 11:08:01;;;;;;;;;1.00;0.33;;;;;22.33;98.86;101243.25;5003172;28;46593;-84
2023/07/26 11:10:32;;;;;;;;;1.00;1.00;;;;;22.33;99.54;101251.34;5017180;28;45336;-85
2023/07/26 11:13:14;;;;;;;;;1.00;1.00;;;;;22.37;98.75;101253.88;4983650;28;45230;-84
2023/07/26 11:15:50;;;;;;;;;2.00;0.00;;;;;22.32;96.95;101241.47;5018940;28;45336;-85